16 sierpnia 2022

Czas Kod Pogoda Temp. Widoczność Sufit Wiatr METAR/SPECI
13:30
V
29 °C 10 km+ - 180° 180° 15 kt METAR LEGE 161130Z 18015KT 9999 FEW030 29/20 Q1008
13:00
V
30 °C 10 km+ - 180° 180° 14 kt METAR LEGE 161100Z 18014KT 150V210 9999 FEW030 30/19 Q1008
12:30
V
30 °C 10 km+ - 190° 190° 13 kt METAR LEGE 161030Z 19013KT 150V210 CAVOK 30/18 Q1008
12:00
V
30 °C 10 km+ - 190° 190° 13 kt METAR LEGE 161000Z 19013KT 160V220 CAVOK 30/17 Q1008
11:30
V
30 °C 10 km+ - 180° 180° 10 kt METAR LEGE 160930Z 18010KT 150V230 CAVOK 30/16 Q1008
11:00
V
29 °C 10 km+ - 190° 190° 10 kt METAR LEGE 160900Z 19010KT 160V230 CAVOK 29/16 Q1009
10:30
V
27 °C 10 km+ - 160° 160° 3 kt METAR LEGE 160830Z 16003KT 070V230 CAVOK 27/17 Q1008
10:00
V
27 °C 10 km+ - Var Var 1 kt METAR LEGE 160800Z VRB01KT CAVOK 27/17 Q1008
09:30
V
25 °C 10 km+ - 150° 150° 1 kt METAR LEGE 160730Z 15001KT CAVOK 25/17 Q1008
09:00
V
22 °C 10 km+ - Var Var 1 kt METAR LEGE 160700Z VRB01KT CAVOK 22/17 Q1009
08:30
V
21 °C 10 km+ - Var Var 1 kt METAR LEGE 160630Z VRB01KT CAVOK 21/17 Q1009
08:00
V
19 °C 10 km+ - 240° 240° 2 kt METAR LEGE 160600Z 24002KT CAVOK 19/16 Q1009
07:30
V
19 °C 10 km+ - Var 000° 0 kt METAR LEGE 160530Z 00000KT 9999 FEW090 19/16 Q1008
07:00
V
18 °C 10 km+ - Var 000° 0 kt METAR LEGE 160500Z 00000KT 9999 FEW090 18/16 Q1008
06:30
V
18 °C 10 km+ - 040° 040° 2 kt METAR LEGE 160430Z 04002KT CAVOK 18/16 Q1008
06:00
V
18 °C 10 km+ - Var 000° 0 kt METAR LEGE 160400Z 00000KT CAVOK 18/16 Q1008
05:30
V
18 °C 10 km+ - 050° 050° 1 kt METAR LEGE 160330Z 05001KT CAVOK 18/16 Q1008
05:00
V
19 °C 10 km+ - 030° 030° 3 kt METAR LEGE 160300Z 03003KT CAVOK 19/16 Q1008
04:30
V
18 °C 10 km+ - 250° 250° 4 kt METAR LEGE 160230Z 25004KT CAVOK 18/16 Q1009
04:00
V
19 °C 10 km+ - 280° 280° 5 kt METAR LEGE 160200Z 28005KT CAVOK 19/16 Q1009
03:30
V
19 °C 10 km+ - 230° 230° 3 kt METAR LEGE 160130Z 23003KT CAVOK 19/16 Q1009
03:00
V
19 °C 10 km+ - Var Var 1 kt METAR LEGE 160100Z VRB01KT CAVOK 19/17 Q1009
02:30
V
20 °C 10 km+ - Var Var 1 kt METAR LEGE 160030Z VRB01KT CAVOK 20/17 Q1009
02:00
V
20 °C 10 km+ - Var Var 2 kt METAR LEGE 160000Z VRB02KT CAVOK 20/16 Q1009
01:30
V
20 °C 10 km+ - Var Var 1 kt METAR LEGE 152330Z VRB01KT CAVOK 20/16 Q1009
01:00
V
20 °C 10 km+ - 220° 220° 2 kt METAR LEGE 152300Z 22002KT CAVOK 20/16 Q1009
00:30
V
22 °C 10 km+ - Var Var 2 kt METAR LEGE 152230Z VRB02KT CAVOK 22/17 Q1009
00:00
V
22 °C 10 km+ - 280° 280° 1 kt METAR LEGE 152200Z 28001KT 9999 FEW060 22/16 Q1009

15 sierpnia 2022

Czas Kod Pogoda Temp. Widoczność Sufit Wiatr METAR/SPECI
23:30
V
22 °C 10 km+ - 260° 260° 4 kt METAR LEGE 152130Z 26004KT 9999 FEW060 22/16 Q1009
23:00
V
22 °C 10 km+ - 250° 250° 3 kt METAR LEGE 152100Z 25003KT 9999 FEW060 22/16 Q1009
22:30
V
23 °C 10 km+ - 260° 260° 4 kt METAR LEGE 152030Z 26004KT CAVOK 23/17 Q1009
22:00
V
24 °C 10 km+ - 250° 250° 4 kt METAR LEGE 152000Z 25004KT CAVOK 24/16 Q1008
21:30
V
24 °C 10 km+ - 230° 230° 3 kt METAR LEGE 151930Z 23003KT 200V270 CAVOK 24/16 Q1008
21:00
V
26 °C 10 km+ - 040° 040° 3 kt METAR LEGE 151900Z 04003KT 020V080 CAVOK 26/16 Q1008
20:30
V
27 °C 10 km+ - Var Var 2 kt METAR LEGE 151830Z VRB02KT CAVOK 27/16 Q1008
20:00
V
28 °C 10 km+ - 010° 010° 4 kt METAR LEGE 151800Z 01004KT 330V050 CAVOK 28/16 Q1007
19:30
V
28 °C 10 km+ - 010° 010° 4 kt METAR LEGE 151730Z 01004KT 310V080 9999 FEW060 28/16 Q1007
19:00
V
28 °C 10 km+ - 100° 100° 3 kt METAR LEGE 151700Z 10003KT 9999 FEW060 28/16 Q1007
18:30
V
28 °C 10 km+ - 070° 070° 4 kt METAR LEGE 151630Z 07004KT 9999 FEW060 28/16 Q1008
18:00
V
28 °C 10 km+ - 110° 110° 4 kt METAR LEGE 151600Z 11004KT 040V200 9999 VCTS FEW060CB 28/17 Q1008
17:30
V
28 °C 10 km+ - 070° 070° 6 kt METAR LEGE 151530Z 07006KT 030V110 9999 FEW060 28/16 Q1008
17:00
V
27 °C 10 km+ - 060° 060° 10 - 20 kt METAR LEGE 151500Z 06010G20KT 010V160 9999 FEW060 27/16 Q1008
16:30
V
27 °C 10 km+ - 060° 060° 12 kt METAR LEGE 151430Z 06012KT 030V090 9999 FEW060 27/16 Q1008
16:00
V
29 °C 10 km+ - 070° 070° 10 kt METAR LEGE 151400Z 07010KT 040V100 9999 FEW060 SCT080 29/17 Q1008
15:30
V
31 °C 10 km+ 8.000 ft 140° 140° 7 kt METAR LEGE 151330Z 14007KT 080V180 9999 SCT060 BKN080 31/16 Q1007
15:00
V
31 °C 10 km+ 8.000 ft 120° 120° 9 kt METAR LEGE 151300Z 12009KT 060V190 9999 SCT060 BKN080 31/15 Q1007
14:30
V
30 °C 10 km+ 8.000 ft 140° 140° 10 kt METAR LEGE 151230Z 14010KT 100V170 9999 SCT060 BKN080 30/16 Q1007
14:00
V
30 °C 10 km+ - 120° 120° 9 kt METAR LEGE 151200Z 12009KT 070V160 9999 FEW030 30/16 Q1007
13:30
V
32 °C 10 km+ - 140° 140° 6 kt METAR LEGE 151130Z 14006KT 080V220 9999 FEW030 32/15 Q1007
13:00
V
32 °C 10 km+ - 130° 130° 4 kt METAR LEGE 151100Z 13004KT 9999 FEW030 32/15 Q1007
12:30
V
31 °C 10 km+ - 190° 190° 4 kt METAR LEGE 151030Z 19004KT CAVOK 31/16 Q1008
12:00
V
29 °C 10 km+ - 040° 040° 4 kt METAR LEGE 151000Z 04004KT CAVOK 29/16 Q1008
11:30
V
28 °C 10 km+ - 030° 030° 6 kt METAR LEGE 150930Z 03006KT 340V080 CAVOK 28/16 Q1008
11:00
V
28 °C 10 km+ - 060° 060° 8 kt METAR LEGE 150900Z 06008KT 020V110 CAVOK 28/16 Q1008
10:30
V
27 °C 10 km+ - 040° 040° 8 kt METAR LEGE 150830Z 04008KT 010V080 CAVOK 27/17 Q1008
10:00
V
26 °C 10 km+ - 030° 030° 9 kt METAR LEGE 150800Z 03009KT 360V060 CAVOK 26/17 Q1008
09:30
V
25 °C 10 km+ - 030° 030° 8 kt METAR LEGE 150730Z 03008KT 350V070 CAVOK 25/18 Q1008
09:00
V
24 °C 10 km+ - 020° 020° 6 kt METAR LEGE 150700Z 02006KT CAVOK 24/18 Q1008
08:30
V
23 °C 10 km+ - 020° 020° 5 kt METAR LEGE 150630Z 02005KT 340V050 CAVOK 23/18 Q1008
08:00
V
22 °C 10 km+ - 010° 010° 3 kt METAR LEGE 150600Z 01003KT CAVOK 22/18 Q1008
07:30
V
21 °C 10 km+ - 360° 360° 4 kt METAR LEGE 150530Z 36004KT 320V030 CAVOK 21/18 Q1008
07:00
V
21 °C 10 km+ - 360° 360° 4 kt METAR LEGE 150500Z 36004KT 9999 FEW060 21/18 Q1008
06:30
V
20 °C 10 km+ - 020° 020° 4 kt METAR LEGE 150430Z 02004KT 9999 FEW060 20/18 Q1008
06:00
V
20 °C 10 km+ - 030° 030° 2 kt METAR LEGE 150400Z 03002KT 9999 FEW060 20/17 Q1008
05:30
V
21 °C 10 km+ - Var 000° 0 kt METAR LEGE 150330Z 00000KT 9999 FEW060 21/18 Q1008
05:00
V
21 °C 10 km+ - Var Var 1 kt METAR LEGE 150300Z VRB01KT 9999 FEW060 21/18 Q1008
04:30
V
22 °C 10 km+ - Var Var 1 kt METAR LEGE 150230Z VRB01KT 9999 FEW060 22/18 Q1008
04:00
V
23 °C 10 km+ - Var Var 2 kt METAR LEGE 150200Z VRB02KT 9999 FEW060 23/18 Q1009
03:30
V
24 °C 10 km+ - 350° 350° 4 kt METAR LEGE 150130Z 35004KT 320V030 9999 FEW060 24/18 Q1009
03:00
V
23 °C 10 km+ - 340° 340° 3 kt METAR LEGE 150100Z 34003KT 290V020 9999 FEW050 23/18 Q1009
02:00
V
23 °C 10 km+ - 340° 340° 4 kt METAR LEGE 150000Z 34004KT 320V040 9999 FEW050 23/18 Q1009
01:30
V
23 °C 10 km+ - 340° 340° 4 kt METAR LEGE 142330Z 34004KT 9999 FEW050 23/19 Q1009
01:00
V
23 °C 10 km+ - 350° 350° 4 kt METAR LEGE 142300Z 35004KT 320V020 9999 FEW050 23/19 Q1009
00:30
V
23 °C 10 km+ - 360° 360° 3 kt METAR LEGE 142230Z 36003KT 320V030 9999 FEW050 23/20 Q1009
00:00
V
24 °C 10 km+ - 360° 360° 3 kt METAR LEGE 142200Z 36003KT 330V040 9999 FEW050 24/20 Q1009

14 sierpnia 2022

Czas Kod Pogoda Temp. Widoczność Sufit Wiatr METAR/SPECI
23:30
V
24 °C 10 km+ - 020° 020° 4 kt METAR LEGE 142130Z 02004KT 9999 FEW050 24/20 Q1009
23:00
V
25 °C 10 km+ - 010° 010° 7 kt METAR LEGE 142100Z 01007KT 330V030 9999 SCT050 25/20 Q1009
22:30
V
25 °C 10 km+ - 010° 010° 6 kt METAR LEGE 142030Z 01006KT 330V040 9999 VCSH FEW050CB SCT055 25/19 Q1009
22:00
V
26 °C 10 km+ - 050° 050° 6 kt METAR LEGE 142000Z 05006KT 9999 FEW050CB SCT055 26/20 Q1009
21:30
V
26 °C 10 km+ - 100° 100° 6 kt METAR LEGE 141930Z 10006KT 060V160 9999 FEW050CB SCT055 26/20 Q1009 RETSRA
21:15
V
26 °C 10 km+ - 130° 130° 5 kt METAR LEGE 141915Z 13005KT 080V190 9999 TSRA SCT055CB 26/20 Q1009
21:03
V
27 °C 10 km+ - 090° 090° 4 kt METAR LEGE 141903Z 09004KT 050V110 9999 TS VCSH FEW050CB SCT060 27/20 Q1008
20:30
V
27 °C 10 km+ - 080° 080° 4 kt METAR LEGE 141830Z 08004KT 030V100 9999 FEW050TCU 27/20 Q1008
20:00
V
28 °C 10 km+ - 080° 080° 6 kt METAR LEGE 141800Z 08006KT 050V110 9999 FEW030 SCT050 28/20 Q1008
19:30
V
29 °C 10 km+ - 100° 100° 7 kt METAR LEGE 141730Z 10007KT 9999 FEW030 SCT050 29/19 Q1008
19:00
V
30 °C 10 km+ - 090° 090° 6 kt METAR LEGE 141700Z 09006KT 060V120 9999 FEW050 30/18 Q1007
18:30
V
31 °C 10 km+ - 080° 080° 9 kt METAR LEGE 141630Z 08009KT 030V120 9999 SCT050 31/18 Q1007
18:00
V
31 °C 10 km+ - 110° 110° 7 kt METAR LEGE 141600Z 11007KT 060V160 9999 SCT050 31/18 Q1007
17:30
V
31 °C 10 km+ - 090° 090° 9 kt METAR LEGE 141530Z 09009KT 070V180 9999 SCT050 31/18 Q1007
17:00
V
30 °C 10 km+ - 100° 100° 9 kt METAR LEGE 141500Z 10009KT 9999 FEW050 30/18 Q1007
16:30
V
32 °C 10 km+ - 080° 080° 9 kt METAR LEGE 141430Z 08009KT 020V120 9999 FEW050 32/18 Q1007
16:00
V
31 °C 10 km+ - 080° 080° 12 kt METAR LEGE 141400Z 08012KT 040V110 9999 FEW050 31/19 Q1007
15:30
V
33 °C 10 km+ - 160° 160° 9 kt METAR LEGE 141330Z 16009KT 110V190 9999 FEW050 33/19 Q1007
15:00
V
32 °C 10 km+ - 120° 120° 9 kt METAR LEGE 141300Z 12009KT 080V150 9999 FEW050 32/19 Q1008
14:30
V
31 °C 10 km+ - 130° 130° 12 kt METAR LEGE 141230Z 13012KT 080V170 9999 FEW045 SCT070 31/19 Q1007
14:00
V
31 °C 10 km+ - 130° 130° 13 kt METAR LEGE 141200Z 13013KT 100V160 9999 FEW045 SCT070 31/20 Q1007
Starsze dane

My i osoby trzecie śledzimy twoje zachowanie w internecie na naszej stronie za pomocą plików cookie. Jeśli kontynuujesz, zakładamy, że zgadzasz się z naszą polityką plików cookie. Dowiedz się więcej